Time;durP1;ratioP1;P1;durP2;ratioP2;P2;SDS_P1;SDS_P2;PMS_P1;PMS_P2;Temp;Humidity;BMP_temperature;BMP_pressure;BME280_temperature;BME280_humidity;BME280_pressure;Samples;Min_cycle;Max_cycle;Signal;HPM_P1;HPM_P2
2022/05/06 00:00:55;;;;;;;;;26.75;24.75;;;;;;;;5032915;28;51122;-50
2022/05/06 00:03:20;;;;;;;;;23.00;22.75;;;;;;;;5034904;28;51180;-49
2022/05/06 00:05:52;;;;;;;;;25.00;23.75;;;;;;;;5038276;28;51200;-47
2022/05/06 00:08:17;;;;;;;;;24.50;22.00;;;;;;;;5041195;28;51297;-48
2022/05/06 00:10:43;;;;;;;;;22.25;21.25;;;;;;;;5013986;28;52797;-50
2022/05/06 00:13:08;;;;;;;;;24.75;24.25;;;;;;;;5048366;28;51112;-51
2022/05/06 00:15:34;;;;;;;;;24.75;23.75;;;;;;;;5035602;28;51094;-48
2022/05/06 00:17:59;;;;;;;;;26.25;24.25;;;;;;;;5040068;28;51374;-49
2022/05/06 00:20:25;;;;;;;;;29.25;25.50;;;;;;;;5034673;28;51799;-49
2022/05/06 00:22:50;;;;;;;;;32.00;26.50;;;;;;;;5037160;28;52135;-47
2022/05/06 00:25:15;;;;;;;;;27.25;24.00;;;;;;;;5040901;28;51231;-47
2022/05/06 00:27:41;;;;;;;;;25.25;24.75;;;;;;;;5035738;28;51140;-48
2022/05/06 00:30:06;;;;;;;;;27.50;25.25;;;;;;;;5047144;28;51701;-51
2022/05/06 00:32:33;;;;;;;;;22.50;22.00;;;;;;;;5035444;28;51104;-50
2022/05/06 00:34:58;;;;;;;;;24.00;23.50;;;;;;;;5034397;28;51277;-48
2022/05/06 00:37:23;;;;;;;;;21.75;21.25;;;;;;;;5047463;28;50971;-46
2022/05/06 00:39:48;;;;;;;;;25.25;23.75;;;;;;;;5039206;28;51149;-48
2022/05/06 00:42:15;;;;;;;;;25.50;25.50;;;;;;;;5046029;28;51165;-48
2022/05/06 00:45:07;;;;;;;;;24.00;22.50;;;;;;;;5035653;28;51150;-48
2022/05/06 00:47:34;;;;;;;;;29.50;24.75;;;;;;;;5031629;28;51157;-50
2022/05/06 00:50:00;;;;;;;;;24.00;22.75;;;;;;;;5034241;28;51907;-48
2022/05/06 00:52:26;;;;;;;;;27.75;24.75;;;;;;;;5033963;28;51216;-47
2022/05/06 00:54:51;;;;;;;;;28.25;26.50;;;;;;;;5028706;28;52062;-46
2022/05/06 00:57:17;;;;;;;;;26.50;24.75;;;;;;;;5038890;28;51111;-49
2022/05/06 01:02:26;;;;;;;;;25.75;25.75;;;;;;;;5038997;28;51154;-48
2022/05/06 01:04:52;;;;;;;;;24.00;22.25;;;;;;;;5041146;28;50941;-48
2022/05/06 01:07:19;;;;;;;;;24.50;24.00;;;;;;;;5034905;28;51048;-49
2022/05/06 01:09:44;;;;;;;;;27.00;26.75;;;;;;;;5038326;28;51534;-50
2022/05/06 01:12:09;;;;;;;;;27.50;25.50;;;;;;;;5035039;28;51017;-48
2022/05/06 01:14:35;;;;;;;;;28.75;27.00;;;;;;;;5034537;28;51163;-49
2022/05/06 01:17:00;;;;;;;;;21.75;21.25;;;;;;;;5044295;28;51330;-48
2022/05/06 01:19:25;;;;;;;;;29.00;25.50;;;;;;;;5024989;28;52759;-49
2022/05/06 01:21:52;;;;;;;;;29.50;25.25;;;;;;;;5039221;28;51083;-47
2022/05/06 01:24:18;;;;;;;;;30.50;26.50;;;;;;;;5039703;28;51145;-47
2022/05/06 01:27:06;;;;;;;;;30.50;27.50;;;;;;;;5042384;28;51166;-46
2022/05/06 01:29:31;;;;;;;;;29.75;27.25;;;;;;;;5045996;28;51886;-49
2022/05/06 01:31:57;;;;;;;;;28.25;26.75;;;;;;;;5035190;28;51017;-48
2022/05/06 01:34:25;;;;;;;;;31.75;29.25;;;;;;;;5038623;28;51130;-49
2022/05/06 01:36:53;;;;;;;;;25.75;24.25;;;;;;;;5037281;28;50952;-48
2022/05/06 01:39:19;;;;;;;;;27.00;25.75;;;;;;;;5025330;28;52160;-49
2022/05/06 01:41:45;;;;;;;;;29.75;27.50;;;;;;;;5035039;28;51163;-47
2022/05/06 01:44:14;;;;;;;;;25.00;24.25;;;;;;;;5047208;28;51292;-49
2022/05/06 01:46:40;;;;;;;;;28.75;27.75;;;;;;;;5035302;28;51028;-49
2022/05/06 01:49:06;;;;;;;;;28.50;27.00;;;;;;;;5018698;28;54555;-48
2022/05/06 01:51:33;;;;;;;;;27.25;26.25;;;;;;;;5019396;28;51221;-49
2022/05/06 01:53:59;;;;;;;;;27.25;26.00;;;;;;;;5046712;28;51109;-48
2022/05/06 01:56:24;;;;;;;;;28.75;27.50;;;;;;;;5036544;28;51123;-47
2022/05/06 01:58:49;;;;;;;;;29.00;28.25;;;;;;;;5038903;28;52154;-49
2022/05/06 02:01:15;;;;;;;;;30.50;27.00;;;;;;;;5039300;28;50935;-48
2022/05/06 02:06:24;;;;;;;;;27.50;26.25;;;;;;;;5033243;28;50938;-48
2022/05/06 02:08:49;;;;;;;;;28.00;24.25;;;;;;;;5037003;28;52319;-47
2022/05/06 02:11:15;;;;;;;;;33.50;27.00;;;;;;;;5038150;28;51128;-47
2022/05/06 02:13:46;;;;;;;;;28.50;26.00;;;;;;;;5045129;28;50845;-48
2022/05/06 02:16:11;;;;;;;;;28.25;27.75;;;;;;;;5033933;28;51182;-48
2022/05/06 02:18:37;;;;;;;;;30.75;28.75;;;;;;;;5025495;28;51622;-46
2022/05/06 02:21:02;;;;;;;;;29.50;26.75;;;;;;;;5032993;28;51083;-47
2022/05/06 02:23:28;;;;;;;;;30.00;28.50;;;;;;;;5034691;28;51167;-47
2022/05/06 02:25:53;;;;;;;;;29.25;28.00;;;;;;;;5046690;28;51352;-47
2022/05/06 02:28:19;;;;;;;;;29.00;28.00;;;;;;;;5039035;28;51283;-47
2022/05/06 02:33:28;;;;;;;;;29.75;26.50;;;;;;;;5034813;28;51065;-48
2022/05/06 02:35:54;;;;;;;;;28.75;27.50;;;;;;;;5033206;28;51298;-49
2022/05/06 02:38:21;;;;;;;;;29.25;27.25;;;;;;;;5032443;28;51174;-48
2022/05/06 02:40:47;;;;;;;;;26.25;25.75;;;;;;;;5044862;28;51129;-48
2022/05/06 02:43:12;;;;;;;;;28.75;27.75;;;;;;;;5015188;28;51164;-46
2022/05/06 02:45:37;;;;;;;;;29.25;26.25;;;;;;;;5036021;28;51099;-48
2022/05/06 02:48:03;;;;;;;;;26.50;23.50;;;;;;;;5034434;28;52375;-49
2022/05/06 02:50:28;;;;;;;;;31.75;28.25;;;;;;;;5006549;28;51238;-50
2022/05/06 02:52:53;;;;;;;;;32.50;30.75;;;;;;;;5016454;28;51033;-48
2022/05/06 02:55:19;;;;;;;;;30.75;30.75;;;;;;;;5035287;28;51031;-47
2022/05/06 02:57:45;;;;;;;;;31.00;28.50;;;;;;;;5016934;28;52774;-47
2022/05/06 03:00:10;;;;;;;;;29.00;26.75;;;;;;;;5033055;28;51172;-51
2022/05/06 03:02:36;;;;;;;;;26.00;25.00;;;;;;;;5033628;28;51128;-48
2022/05/06 03:05:01;;;;;;;;;27.50;25.75;;;;;;;;5035758;28;50996;-46
2022/05/06 03:07:27;;;;;;;;;27.50;26.50;;;;;;;;5016670;28;51625;-49
2022/05/06 03:09:55;;;;;;;;;32.50;28.25;;;;;;;;5034979;28;51107;-47
2022/05/06 03:12:26;;;;;;;;;26.25;26.00;;;;;;;;5033262;28;50907;-48
2022/05/06 03:14:52;;;;;;;;;27.50;26.50;;;;;;;;5034934;28;51286;-47
2022/05/06 03:17:17;;;;;;;;;23.25;22.75;;;;;;;;5037201;28;52134;-47
2022/05/06 03:19:42;;;;;;;;;28.25;28.25;;;;;;;;5045048;28;51123;-47
2022/05/06 03:22:07;;;;;;;;;29.75;26.75;;;;;;;;5034343;28;51045;-48
2022/05/06 03:24:33;;;;;;;;;29.75;27.50;;;;;;;;5036192;28;51171;-47
2022/05/06 03:26:58;;;;;;;;;26.50;25.00;;;;;;;;5032263;28;51151;-46
2022/05/06 03:29:23;;;;;;;;;26.50;25.25;;;;;;;;5032390;28;51255;-48
2022/05/06 03:31:48;;;;;;;;;30.75;29.75;;;;;;;;5034114;28;51307;-48
2022/05/06 03:34:15;;;;;;;;;32.25;27.25;;;;;;;;5042485;28;50945;-47
2022/05/06 03:36:40;;;;;;;;;33.50;31.50;;;;;;;;5038573;28;51892;-48
2022/05/06 03:39:05;;;;;;;;;30.25;27.50;;;;;;;;5037201;28;51193;-47
2022/05/06 03:41:30;;;;;;;;;27.75;25.00;;;;;;;;5036542;28;51358;-47
2022/05/06 03:43:56;;;;;;;;;27.00;26.50;;;;;;;;5035926;28;51294;-47
2022/05/06 03:46:21;;;;;;;;;26.25;24.25;;;;;;;;5035993;28;52084;-48
2022/05/06 03:48:46;;;;;;;;;34.25;32.50;;;;;;;;5041178;28;51107;-47
2022/05/06 03:51:20;;;;;;;;;31.75;30.75;;;;;;;;5037384;28;51183;-49
2022/05/06 03:53:45;;;;;;;;;32.50;30.75;;;;;;;;5032768;28;50901;-48
2022/05/06 03:56:11;;;;;;;;;31.00;27.75;;;;;;;;5042794;28;51931;-49
2022/05/06 03:58:36;;;;;;;;;37.25;30.75;;;;;;;;5032497;28;50947;-47
2022/05/06 04:01:05;;;;;;;;;31.75;30.00;;;;;;;;5033778;28;51294;-48
2022/05/06 04:03:36;;;;;;;;;28.00;27.75;;;;;;;;5017079;28;52406;-48
2022/05/06 04:06:02;;;;;;;;;28.75;27.75;;;;;;;;5034251;28;51148;-49
2022/05/06 04:08:37;;;;;;;;;29.00;26.75;;;;;;;;5040914;28;51145;-49
2022/05/06 04:11:02;;;;;;;;;27.25;24.75;;;;;;;;5015958;28;51294;-49
2022/05/06 04:13:28;;;;;;;;;31.25;29.00;;;;;;;;5044142;28;51305;-51
2022/05/06 04:15:53;;;;;;;;;30.50;30.50;;;;;;;;5044142;28;50982;-49
2022/05/06 04:18:24;;;;;;;;;34.00;31.50;;;;;;;;5032255;28;51162;-46
2022/05/06 04:23:35;;;;;;;;;30.75;28.75;;;;;;;;5016688;28;51152;-48
2022/05/06 04:26:04;;;;;;;;;29.75;28.00;;;;;;;;5031780;28;51733;-48
2022/05/06 04:28:32;;;;;;;;;36.25;32.75;;;;;;;;5030691;28;51128;-48
2022/05/06 04:30:58;;;;;;;;;35.25;32.75;;;;;;;;5032916;28;51218;-49
2022/05/06 04:33:40;;;;;;;;;32.75;30.25;;;;;;;;5033451;28;51028;-49
2022/05/06 04:36:06;;;;;;;;;26.75;25.75;;;;;;;;5035045;28;51191;-49
2022/05/06 04:38:35;;;;;;;;;32.00;30.75;;;;;;;;5032092;28;51155;-48
2022/05/06 04:41:01;;;;;;;;;32.25;27.00;;;;;;;;5038893;28;51052;-47
2022/05/06 04:43:30;;;;;;;;;29.00;27.00;;;;;;;;5036048;28;50926;-49
2022/05/06 04:45:56;;;;;;;;;34.50;30.00;;;;;;;;5031690;28;51123;-48
2022/05/06 04:48:21;;;;;;;;;32.00;31.00;;;;;;;;5035032;28;51150;-46
2022/05/06 04:50:47;;;;;;;;;31.50;29.00;;;;;;;;5029716;28;52180;-47
2022/05/06 04:53:13;;;;;;;;;31.75;29.75;;;;;;;;5028411;28;51514;-47
2022/05/06 04:55:41;;;;;;;;;32.00;30.75;;;;;;;;5028280;28;51221;-47
2022/05/06 04:58:06;;;;;;;;;35.50;29.50;;;;;;;;5035401;28;51124;-49
2022/05/06 05:00:32;;;;;;;;;33.75;30.50;;;;;;;;5040922;28;51061;-48
2022/05/06 05:02:58;;;;;;;;;34.25;30.25;;;;;;;;5039409;28;51358;-46
2022/05/06 05:05:24;;;;;;;;;30.00;27.25;;;;;;;;5034606;28;51544;-48
2022/05/06 05:07:50;;;;;;;;;30.25;29.25;;;;;;;;5036950;28;51213;-47
2022/05/06 05:10:15;;;;;;;;;32.75;30.00;;;;;;;;5032560;28;51276;-47
2022/05/06 05:12:40;;;;;;;;;30.25;28.00;;;;;;;;5035162;28;51143;-49
2022/05/06 05:15:06;;;;;;;;;32.00;29.00;;;;;;;;5035393;28;51112;-48
2022/05/06 05:17:31;;;;;;;;;33.00;31.25;;;;;;;;5044055;28;51151;-51
2022/05/06 05:19:56;;;;;;;;;34.00;31.75;;;;;;;;5040721;28;51139;-49
2022/05/06 05:22:22;;;;;;;;;33.75;29.75;;;;;;;;5044699;28;51031;-47
2022/05/06 05:24:47;;;;;;;;;31.00;31.00;;;;;;;;5035916;28;51127;-47
2022/05/06 05:27:16;;;;;;;;;31.25;30.50;;;;;;;;5016453;28;51079;-47
2022/05/06 05:29:42;;;;;;;;;32.50;27.50;;;;;;;;5018165;28;51260;-47
2022/05/06 05:32:12;;;;;;;;;26.25;24.25;;;;;;;;5038026;28;51166;-47
2022/05/06 05:34:40;;;;;;;;;29.50;27.50;;;;;;;;5040755;28;52225;-49
2022/05/06 05:37:05;;;;;;;;;34.75;30.50;;;;;;;;5037428;28;50946;-48
2022/05/06 05:39:31;;;;;;;;;29.75;29.25;;;;;;;;5037442;28;52308;-49
2022/05/06 05:42:00;;;;;;;;;39.00;34.25;;;;;;;;5017159;28;50935;-48
2022/05/06 05:49:53;;;;;;;;;31.50;30.50;;;;;;;;5038605;28;51067;-47
2022/05/06 05:52:18;;;;;;;;;35.00;32.25;;;;;;;;5048596;28;51323;-47
2022/05/06 05:54:43;;;;;;;;;34.25;29.25;;;;;;;;5035516;28;51454;-49
2022/05/06 05:57:08;;;;;;;;;31.75;28.50;;;;;;;;5034382;28;51095;-50
2022/05/06 05:59:34;;;;;;;;;30.00;28.00;;;;;;;;5036411;28;51281;-46
2022/05/06 06:01:59;;;;;;;;;46.25;37.50;;;;;;;;5039750;28;51256;-48
2022/05/06 06:04:31;;;;;;;;;32.50;29.00;;;;;;;;5035223;28;51296;-47
2022/05/06 06:06:56;;;;;;;;;31.75;28.75;;;;;;;;5035760;28;51096;-48
2022/05/06 06:09:22;;;;;;;;;34.00;32.00;;;;;;;;5043627;28;51289;-46
2022/05/06 06:11:49;;;;;;;;;31.75;29.75;;;;;;;;5042008;28;51013;-47
2022/05/06 06:14:14;;;;;;;;;31.00;28.75;;;;;;;;5033579;28;51183;-48
2022/05/06 06:16:39;;;;;;;;;34.00;31.75;;;;;;;;5031441;28;51284;-47
2022/05/06 06:19:04;;;;;;;;;32.25;29.50;;;;;;;;5014656;28;51380;-48
2022/05/06 06:21:29;;;;;;;;;24.25;24.25;;;;;;;;5037132;28;51082;-47
2022/05/06 06:23:55;;;;;;;;;29.00;28.25;;;;;;;;5034996;28;51238;-48
2022/05/06 06:26:20;;;;;;;;;33.00;30.25;;;;;;;;5033973;28;51252;-47
2022/05/06 06:28:46;;;;;;;;;32.75;30.50;;;;;;;;5013625;28;51220;-50
2022/05/06 06:31:11;;;;;;;;;37.00;32.25;;;;;;;;5025471;28;51299;-48
2022/05/06 06:33:40;;;;;;;;;32.25;30.00;;;;;;;;5010795;28;53892;-46
2022/05/06 06:36:06;;;;;;;;;31.25;29.75;;;;;;;;5018203;28;51066;-48
2022/05/06 06:38:31;;;;;;;;;33.75;30.25;;;;;;;;5036169;28;51133;-47
2022/05/06 06:40:57;;;;;;;;;33.25;30.00;;;;;;;;5043615;28;51300;-48
2022/05/06 06:43:22;;;;;;;;;32.25;28.00;;;;;;;;5034503;28;52092;-48
2022/05/06 06:45:51;;;;;;;;;33.00;30.00;;;;;;;;5036148;28;51125;-51
2022/05/06 06:48:17;;;;;;;;;30.75;29.25;;;;;;;;5041063;28;51167;-52
2022/05/06 06:50:42;;;;;;;;;29.75;28.50;;;;;;;;5032580;28;51509;-48
2022/05/06 06:53:08;;;;;;;;;29.25;28.25;;;;;;;;5038234;28;51024;-48
2022/05/06 06:55:39;;;;;;;;;32.00;29.00;;;;;;;;5039780;28;51143;-47
2022/05/06 06:58:06;;;;;;;;;26.25;25.50;;;;;;;;5039085;28;51148;-52
2022/05/06 07:00:31;;;;;;;;;26.25;26.25;;;;;;;;5033169;28;51087;-49
2022/05/06 07:02:57;;;;;;;;;31.75;29.50;;;;;;;;5033090;28;51552;-47
2022/05/06 07:05:23;;;;;;;;;27.25;26.25;;;;;;;;5033112;28;51033;-49
2022/05/06 07:13:22;;;;;;;;;34.75;31.50;;;;;;;;5040846;28;51110;-49
2022/05/06 07:15:48;;;;;;;;;28.75;27.50;;;;;;;;5024642;28;51234;-50
2022/05/06 07:18:19;;;;;;;;;28.50;27.50;;;;;;;;5048012;28;51262;-49
2022/05/06 07:20:45;;;;;;;;;27.00;24.67;;;;;;;;5045366;28;51183;-51
2022/05/06 07:23:10;;;;;;;;;28.75;27.50;;;;;;;;5037123;28;51745;-49
2022/05/06 07:25:39;;;;;;;;;26.00;25.33;;;;;;;;5013832;28;51162;-48
2022/05/06 07:28:06;;;;;;;;;25.00;24.50;;;;;;;;5032965;28;51095;-51
2022/05/06 07:30:34;;;;;;;;;30.50;28.75;;;;;;;;5017835;28;51111;-49
2022/05/06 07:33:00;;;;;;;;;26.00;26.00;;;;;;;;5038291;28;51843;-48
2022/05/06 07:35:29;;;;;;;;;24.33;24.33;;;;;;;;5028437;28;51093;-49
2022/05/06 07:38:06;;;;;;;;;25.00;25.00;;;;;;;;5046226;28;51088;-47
2022/05/06 07:40:31;;;;;;;;;22.25;21.50;;;;;;;;5026437;28;51287;-49
2022/05/06 07:43:02;;;;;;;;;25.67;24.67;;;;;;;;5031253;28;52775;-48
2022/05/06 07:45:28;;;;;;;;;23.67;23.33;;;;;;;;5031821;28;51048;-50
2022/05/06 07:47:56;;;;;;;;;26.67;25.67;;;;;;;;5019673;28;51437;-47
2022/05/06 07:50:22;;;;;;;;;20.00;19.33;;;;;;;;5032040;28;51174;-49
2022/05/06 07:52:50;;;;;;;;;20.25;19.50;;;;;;;;5033296;28;51624;-48
2022/05/06 07:55:19;;;;;;;;;22.67;22.33;;;;;;;;5031323;28;51304;-49
2022/05/06 07:57:44;;;;;;;;;24.00;23.00;;;;;;;;5034475;28;50875;-49
2022/05/06 08:00:10;;;;;;;;;26.33;24.00;;;;;;;;5042960;28;51057;-50
2022/05/06 08:05:22;;;;;;;;;24.00;21.75;;;;;;;;5029654;28;51191;-49
2022/05/06 08:07:47;;;;;;;;;22.00;22.00;;;;;;;;5036670;28;51311;-50
2022/05/06 08:10:13;;;;;;;;;20.50;19.75;;;;;;;;5038048;28;51108;-46
2022/05/06 08:12:39;;;;;;;;;21.00;20.33;;;;;;;;5030298;28;52935;-52
2022/05/06 08:15:04;;;;;;;;;19.33;19.33;;;;;;;;5030654;28;51025;-50
2022/05/06 08:17:29;;;;;;;;;21.33;19.67;;;;;;;;5031200;28;51055;-49
2022/05/06 08:19:55;;;;;;;;;21.75;21.75;;;;;;;;5014169;28;51086;-48
2022/05/06 08:22:20;;;;;;;;;21.50;21.50;;;;;;;;5032565;28;51159;-47
2022/05/06 08:24:46;;;;;;;;;18.00;18.00;;;;;;;;5030485;28;52559;-47
2022/05/06 08:27:11;;;;;;;;;19.67;19.67;;;;;;;;5030749;28;51269;-51
2022/05/06 08:29:36;;;;;;;;;16.67;16.67;;;;;;;;5032518;28;51907;-47
2022/05/06 08:32:03;;;;;;;;;14.00;13.67;;;;;;;;5037658;28;50929;-48
2022/05/06 08:34:29;;;;;;;;;17.00;16.00;;;;;;;;5039506;28;51078;-53
2022/05/06 08:36:57;;;;;;;;;21.67;21.33;;;;;;;;5037771;28;51094;-51
2022/05/06 08:39:22;;;;;;;;;18.00;17.00;;;;;;;;5048854;28;51398;-50
2022/05/06 08:41:51;;;;;;;;;16.33;16.00;;;;;;;;5041169;28;51773;-50
2022/05/06 08:52:43;;;;;;;;;14.00;13.33;;;;;;;;5036638;28;51124;-48
2022/05/06 08:55:09;;;;;;;;;13.00;13.00;;;;;;;;5033424;28;51119;-49
2022/05/06 08:57:35;;;;;;;;;14.00;14.00;;;;;;;;5034100;28;51263;-49
2022/05/06 09:00:10;;;;;;;;;12.33;12.33;;;;;;;;5042398;28;50969;-50
2022/05/06 09:02:37;;;;;;;;;15.67;13.33;;;;;;;;5042008;28;51071;-50
2022/05/06 09:05:13;;;;;;;;;9.33;9.33;;;;;;;;5034653;28;51083;-50
2022/05/06 09:07:42;;;;;;;;;10.00;9.67;;;;;;;;5031998;28;51253;-53
2022/05/06 09:10:16;;;;;;;;;7.67;7.67;;;;;;;;5036485;28;51340;-48
2022/05/06 09:12:44;;;;;;;;;11.67;11.00;;;;;;;;5031484;28;53386;-48
2022/05/06 09:17:53;;;;;;;;;9.33;9.33;;;;;;;;5037252;28;51002;-48
2022/05/06 09:20:19;;;;;;;;;10.00;9.00;;;;;;;;5019453;28;50960;-48
2022/05/06 09:22:45;;;;;;;;;8.67;8.67;;;;;;;;5043513;28;51850;-50
2022/05/06 09:25:10;;;;;;;;;9.67;9.67;;;;;;;;5036979;28;51188;-49
2022/05/06 09:27:35;;;;;;;;;10.33;9.33;;;;;;;;5043237;28;51354;-48
2022/05/06 09:30:08;;;;;;;;;11.00;11.00;;;;;;;;5047026;28;51235;-52
2022/05/06 09:32:36;;;;;;;;;10.00;9.67;;;;;;;;5016498;28;51017;-46
2022/05/06 09:35:12;;;;;;;;;7.67;7.67;;;;;;;;5014587;28;51269;-48
2022/05/06 09:37:56;;;;;;;;;;;;;;;;;;;;;
2022/05/06 09:40:42;;;;;;;;;15.33;15.00;;;;;;;;5033339;28;66726;-50
2022/05/06 09:43:15;;;;;;;;;8.00;8.00;;;;;;;;5032929;28;51150;-49
2022/05/06 09:45:43;;;;;;;;;8.33;8.33;;;;;;;;5042134;28;51152;-49
2022/05/06 09:48:20;;;;;;;;;11.00;11.00;;;;;;;;5039999;28;51314;-51
2022/05/06 09:50:47;;;;;;;;;9.67;9.67;;;;;;;;5030356;28;51092;-49
2022/05/06 09:53:14;;;;;;;;;9.67;9.67;;;;;;;;5033133;28;51237;-51
2022/05/06 09:55:41;;;;;;;;;10.33;10.33;;;;;;;;5014873;28;51035;-50
2022/05/06 09:58:07;;;;;;;;;9.00;9.00;;;;;;;;5033092;28;51119;-48
2022/05/06 10:00:38;;;;;;;;;10.33;9.33;;;;;;;;5032607;28;51128;-48
2022/05/06 10:03:04;;;;;;;;;8.00;8.00;;;;;;;;5033042;28;51147;-47
2022/05/06 10:05:29;;;;;;;;;8.00;8.00;;;;;;;;5032937;28;50958;-52
2022/05/06 10:07:57;;;;;;;;;11.00;11.00;;;;;;;;5040003;28;51051;-49
2022/05/06 10:10:26;;;;;;;;;9.33;9.33;;;;;;;;5045734;28;51157;-49
2022/05/06 10:12:55;;;;;;;;;13.67;13.00;;;;;;;;5033070;28;52384;-50
2022/05/06 10:15:23;;;;;;;;;11.67;10.67;;;;;;;;5045761;28;51497;-51
2022/05/06 10:17:49;;;;;;;;;9.67;9.00;;;;;;;;5034097;28;50995;-49
2022/05/06 10:20:33;;;;;;;;;10.67;10.67;;;;;;;;5024424;28;51010;-50
2022/05/06 10:22:59;;;;;;;;;9.33;9.33;;;;;;;;5037365;28;51119;-50
2022/05/06 10:25:44;;;;;;;;;11.33;11.33;;;;;;;;5041637;28;51007;-51
2022/05/06 10:34:18;;;;;;;;;19.00;18.00;;;;;;;;5010242;28;51563;-49
2022/05/06 10:36:50;;;;;;;;;10.67;10.00;;;;;;;;5022347;28;51116;-50
2022/05/06 10:39:22;;;;;;;;;9.00;9.00;;;;;;;;5020808;28;52496;-52
2022/05/06 10:42:06;;;;;;;;;9.67;9.00;;;;;;;;5035538;28;51227;-51
2022/05/06 10:44:44;;;;;;;;;11.33;11.33;;;;;;;;5035062;28;51185;-49
2022/05/06 10:47:12;;;;;;;;;11.00;9.67;;;;;;;;5033073;28;51172;-50
2022/05/06 10:49:37;;;;;;;;;12.00;11.67;;;;;;;;5032959;28;51206;-52
2022/05/06 10:52:38;;;;;;;;;12.67;11.67;;;;;;;;5026228;28;50993;-49
2022/05/06 10:55:03;;;;;;;;;11.00;11.00;;;;;;;;5038467;28;51032;-52
2022/05/06 10:57:43;;;;;;;;;10.67;10.67;;;;;;;;5032499;28;51101;-48
2022/05/06 11:00:09;;;;;;;;;9.33;9.00;;;;;;;;5033985;28;51227;-48
2022/05/06 11:02:35;;;;;;;;;9.67;9.67;;;;;;;;5045318;28;51190;-48
2022/05/06 11:05:00;;;;;;;;;10.00;10.00;;;;;;;;5017378;28;53794;-50
2022/05/06 11:07:26;;;;;;;;;9.00;8.33;;;;;;;;5041470;28;51663;-51
2022/05/06 11:09:51;;;;;;;;;12.67;12.67;;;;;;;;5040692;28;51182;-50
2022/05/06 11:12:35;;;;;;;;;11.33;11.33;;;;;;;;5035648;28;51111;-49
2022/05/06 11:15:04;;;;;;;;;12.00;10.67;;;;;;;;5036705;28;51100;-51
2022/05/06 11:17:33;;;;;;;;;10.00;9.33;;;;;;;;5034069;28;50989;-49
2022/05/06 11:19:59;;;;;;;;;10.33;10.33;;;;;;;;5034642;28;51022;-51
2022/05/06 11:22:25;;;;;;;;;12.33;11.33;;;;;;;;5030885;28;51163;-48
2022/05/06 11:24:56;;;;;;;;;11.33;11.33;;;;;;;;5031326;28;52342;-55
2022/05/06 11:27:22;;;;;;;;;11.00;11.00;;;;;;;;5036139;28;51099;-49
2022/05/06 11:29:48;;;;;;;;;10.00;10.00;;;;;;;;5050640;28;50974;-48
2022/05/06 11:32:14;;;;;;;;;10.33;10.33;;;;;;;;5020614;28;51084;-49
2022/05/06 11:34:44;;;;;;;;;14.67;13.00;;;;;;;;5030775;28;51645;-49
2022/05/06 11:37:09;;;;;;;;;11.33;11.00;;;;;;;;5031447;28;51055;-49
2022/05/06 11:39:35;;;;;;;;;10.67;10.00;;;;;;;;5031240;28;51143;-57
2022/05/06 11:42:19;;;;;;;;;10.33;10.33;;;;;;;;5031972;28;51201;-49
2022/05/06 11:47:27;;;;;;;;;10.00;9.67;;;;;;;;5031378;28;51104;-50
2022/05/06 11:49:53;;;;;;;;;10.33;9.67;;;;;;;;5013215;28;51158;-50
2022/05/06 11:52:18;;;;;;;;;13.00;12.00;;;;;;;;5031831;28;51106;-50
2022/05/06 11:54:43;;;;;;;;;9.67;9.67;;;;;;;;5031250;28;51018;-49
2022/05/06 11:57:10;;;;;;;;;9.00;9.00;;;;;;;;5044399;28;51026;-50
2022/05/06 11:59:36;;;;;;;;;9.33;9.33;;;;;;;;5031522;28;50985;-48
2022/05/06 12:02:05;;;;;;;;;9.00;9.00;;;;;;;;5041288;28;51060;-49
2022/05/06 12:04:31;;;;;;;;;10.67;10.33;;;;;;;;5036806;28;51069;-49
2022/05/06 12:06:56;;;;;;;;;12.33;11.33;;;;;;;;5038119;28;51200;-54
2022/05/06 12:09:21;;;;;;;;;12.67;12.00;;;;;;;;5038465;28;50967;-53
2022/05/06 12:12:00;;;;;;;;;8.67;8.33;;;;;;;;5044878;28;50830;-53
2022/05/06 12:14:27;;;;;;;;;8.67;8.33;;;;;;;;5034124;28;51859;-48
2022/05/06 12:16:56;;;;;;;;;9.00;8.67;;;;;;;;5034780;28;51066;-49
2022/05/06 12:19:41;;;;;;;;;21.00;19.25;;;;;;;;5016100;28;51032;-51
2022/05/06 12:22:07;;;;;;;;;22.75;21.25;;;;;;;;5034819;28;51196;-50
2022/05/06 12:24:48;;;;;;;;;9.33;9.00;;;;;;;;5016490;28;52874;-51
2022/05/06 12:27:26;;;;;;;;;6.67;6.00;;;;;;;;5033911;28;51017;-49
2022/05/06 12:29:52;;;;;;;;;6.67;6.67;;;;;;;;5034522;28;51039;-49
2022/05/06 12:32:17;;;;;;;;;7.33;6.33;;;;;;;;5016414;28;51311;-49
2022/05/06 12:34:43;;;;;;;;;7.00;7.00;;;;;;;;5033870;28;51027;-49
2022/05/06 12:37:12;;;;;;;;;5.00;5.00;;;;;;;;5015960;28;51121;-51
2022/05/06 12:39:41;;;;;;;;;11.33;10.00;;;;;;;;5035854;28;50989;-51
2022/05/06 12:42:13;;;;;;;;;8.67;7.00;;;;;;;;5054310;28;50837;-48
2022/05/06 12:44:38;;;;;;;;;8.00;7.00;;;;;;;;5047368;28;51364;-50
2022/05/06 12:47:14;;;;;;;;;8.67;8.67;;;;;;;;5044716;28;51282;-49
2022/05/06 12:49:39;;;;;;;;;6.00;6.00;;;;;;;;5033992;28;51233;-48
2022/05/06 12:52:05;;;;;;;;;5.00;5.00;;;;;;;;5033397;28;50954;-50
2022/05/06 12:54:31;;;;;;;;;5.33;5.33;;;;;;;;5036888;28;52891;-50
2022/05/06 12:56:57;;;;;;;;;8.33;8.33;;;;;;;;5034630;28;51110;-49
2022/05/06 12:59:22;;;;;;;;;6.00;6.00;;;;;;;;5034060;28;51240;-50
2022/05/06 13:01:48;;;;;;;;;5.67;5.67;;;;;;;;5044320;28;50931;-49
2022/05/06 13:04:14;;;;;;;;;6.00;6.00;;;;;;;;5035001;28;50993;-51
2022/05/06 13:06:39;;;;;;;;;11.00;9.00;;;;;;;;5040414;28;51140;-50
2022/05/06 13:09:04;;;;;;;;;4.67;4.67;;;;;;;;5041301;28;51572;-49
2022/05/06 13:11:29;;;;;;;;;5.00;5.00;;;;;;;;5027549;28;51382;-51
2022/05/06 13:13:55;;;;;;;;;4.67;4.67;;;;;;;;5034441;28;51840;-50
2022/05/06 13:16:20;;;;;;;;;5.00;5.00;;;;;;;;5038156;28;51468;-50
2022/05/06 13:18:45;;;;;;;;;6.00;5.67;;;;;;;;5039814;28;51121;-49
2022/05/06 13:21:11;;;;;;;;;5.00;5.00;;;;;;;;5035724;28;52039;-50
2022/05/06 13:23:37;;;;;;;;;6.00;6.00;;;;;;;;5036790;28;51311;-48
2022/05/06 13:26:03;;;;;;;;;5.00;5.00;;;;;;;;5034503;28;51216;-50
2022/05/06 13:28:29;;;;;;;;;4.00;4.00;;;;;;;;5017950;28;51575;-51
2022/05/06 13:30:54;;;;;;;;;5.00;5.00;;;;;;;;5037461;28;51255;-49
2022/05/06 13:33:19;;;;;;;;;5.67;5.67;;;;;;;;5038473;28;51908;-48
2022/05/06 13:35:44;;;;;;;;;6.00;6.00;;;;;;;;5039689;28;51096;-49
2022/05/06 13:38:10;;;;;;;;;6.00;6.00;;;;;;;;5033957;28;51248;-50
2022/05/06 13:40:35;;;;;;;;;7.00;7.00;;;;;;;;5033185;28;51116;-48
2022/05/06 13:43:00;;;;;;;;;6.00;5.33;;;;;;;;5032569;28;51739;-49
2022/05/06 13:45:28;;;;;;;;;4.00;4.00;;;;;;;;5036227;28;51158;-48
2022/05/06 13:47:53;;;;;;;;;6.00;5.00;;;;;;;;5035064;28;51233;-55
2022/05/06 13:50:19;;;;;;;;;5.00;5.00;;;;;;;;5042533;28;50969;-48
2022/05/06 13:52:44;;;;;;;;;7.00;6.33;;;;;;;;5015679;28;53017;-48
2022/05/06 13:55:09;;;;;;;;;5.33;5.33;;;;;;;;5040454;28;51200;-48
2022/05/06 14:00:19;;;;;;;;;4.33;4.00;;;;;;;;5040719;28;52245;-53
2022/05/06 14:02:45;;;;;;;;;5.00;5.00;;;;;;;;5039252;28;51215;-49
2022/05/06 14:05:10;;;;;;;;;4.33;4.33;;;;;;;;5038539;28;51051;-49
2022/05/06 14:07:36;;;;;;;;;4.67;4.33;;;;;;;;5043016;28;51063;-50
2022/05/06 14:10:02;;;;;;;;;7.67;5.33;;;;;;;;5034023;28;51528;-49
2022/05/06 14:12:28;;;;;;;;;5.00;5.00;;;;;;;;5044600;28;51785;-49
2022/05/06 14:14:53;;;;;;;;;6.00;6.00;;;;;;;;5045106;28;51036;-51
2022/05/06 14:17:21;;;;;;;;;6.00;5.33;;;;;;;;5036680;28;51416;-50
2022/05/06 14:19:47;;;;;;;;;3.33;3.00;;;;;;;;5016999;28;51410;-49
2022/05/06 14:22:15;;;;;;;;;6.00;6.00;;;;;;;;5038193;28;51850;-53
2022/05/06 14:24:45;;;;;;;;;6.00;6.00;;;;;;;;5039567;28;50933;-51
2022/05/06 14:27:11;;;;;;;;;5.00;5.00;;;;;;;;5033179;28;50928;-57
2022/05/06 14:29:36;;;;;;;;;8.00;8.00;;;;;;;;5033259;28;51383;-51
2022/05/06 14:32:04;;;;;;;;;7.33;6.00;;;;;;;;5032722;28;51039;-53
2022/05/06 14:34:30;;;;;;;;;5.00;5.00;;;;;;;;5033151;28;51108;-50
2022/05/06 14:36:55;;;;;;;;;7.67;6.67;;;;;;;;5050601;28;50914;-52
2022/05/06 14:39:21;;;;;;;;;7.00;7.00;;;;;;;;5052782;28;51051;-48
2022/05/06 14:41:46;;;;;;;;;7.67;6.33;;;;;;;;5052295;28;51876;-48
2022/05/06 14:44:11;;;;;;;;;6.00;5.33;;;;;;;;5052974;28;51161;-49
2022/05/06 14:46:40;;;;;;;;;3.67;3.67;;;;;;;;5053113;28;51178;-50
2022/05/06 14:49:06;;;;;;;;;4.33;4.33;;;;;;;;5053320;28;50838;-50
2022/05/06 14:51:34;;;;;;;;;4.67;4.67;;;;;;;;5053277;28;51040;-48
2022/05/06 14:54:03;;;;;;;;;5.00;4.00;;;;;;;;5034587;28;50966;-50
2022/05/06 14:56:32;;;;;;;;;6.00;5.67;;;;;;;;5042283;28;51101;-50
2022/05/06 14:59:00;;;;;;;;;4.67;4.67;;;;;;;;5032533;28;51299;-50
2022/05/06 15:01:25;;;;;;;;;5.33;5.33;;;;;;;;5033969;28;51002;-48
2022/05/06 15:04:08;;;;;;;;;8.33;7.33;;;;;;;;5020102;28;50976;-51
2022/05/06 15:06:37;;;;;;;;;6.33;6.33;;;;;;;;5046563;28;50965;-52
2022/05/06 15:09:02;;;;;;;;;6.00;6.00;;;;;;;;5034333;28;51235;-51
2022/05/06 15:11:31;;;;;;;;;6.67;6.33;;;;;;;;5052325;28;51838;-50
2022/05/06 15:13:56;;;;;;;;;4.00;4.00;;;;;;;;5032725;28;51090;-51